sensor_id;sensor_type;location;lat;lon;timestamp;P1;durP1;ratioP1;P2;durP2;ratioP2
22270;SDS011;11304;53.520;10.104;2023-04-03T00:01:38;7.60;;;2.15;;
22270;SDS011;11304;53.520;10.104;2023-04-03T00:04:05;8.60;;;2.17;;
22270;SDS011;11304;53.520;10.104;2023-04-03T00:06:31;7.00;;;2.40;;
22270;SDS011;11304;53.520;10.104;2023-04-03T00:08:58;6.80;;;2.22;;
22270;SDS011;11304;53.520;10.104;2023-04-03T00:11:24;9.98;;;2.97;;
22270;SDS011;11304;53.520;10.104;2023-04-03T00:13:51;6.38;;;2.03;;
22270;SDS011;11304;53.520;10.104;2023-04-03T00:16:17;5.68;;;2.30;;
22270;SDS011;11304;53.520;10.104;2023-04-03T00:18:43;6.32;;;2.28;;
22270;SDS011;11304;53.520;10.104;2023-04-03T00:21:10;7.60;;;2.40;;
22270;SDS011;11304;53.520;10.104;2023-04-03T00:23:37;6.30;;;2.45;;
22270;SDS011;11304;53.520;10.104;2023-04-03T00:26:04;7.97;;;2.50;;
22270;SDS011;11304;53.520;10.104;2023-04-03T00:28:30;8.43;;;2.75;;
22270;SDS011;11304;53.520;10.104;2023-04-03T00:30:56;7.35;;;2.45;;
22270;SDS011;11304;53.520;10.104;2023-04-03T00:33:22;6.95;;;2.58;;
22270;SDS011;11304;53.520;10.104;2023-04-03T00:35:49;7.43;;;2.67;;
22270;SDS011;11304;53.520;10.104;2023-04-03T00:38:16;8.43;;;2.20;;
22270;SDS011;11304;53.520;10.104;2023-04-03T00:40:43;6.10;;;2.25;;
22270;SDS011;11304;53.520;10.104;2023-04-03T00:43:14;6.90;;;2.33;;
22270;SDS011;11304;53.520;10.104;2023-04-03T00:45:42;11.73;;;2.83;;
22270;SDS011;11304;53.520;10.104;2023-04-03T00:48:10;10.57;;;2.53;;
22270;SDS011;11304;53.520;10.104;2023-04-03T00:50:38;8.77;;;2.30;;
22270;SDS011;11304;53.520;10.104;2023-04-03T00:53:06;6.25;;;2.47;;
22270;SDS011;11304;53.520;10.104;2023-04-03T00:55:33;5.70;;;1.90;;
22270;SDS011;11304;53.520;10.104;2023-04-03T00:58:00;8.95;;;2.88;;
22270;SDS011;11304;53.520;10.104;2023-04-03T01:00:27;7.47;;;2.35;;
22270;SDS011;11304;53.520;10.104;2023-04-03T01:02:53;5.20;;;1.92;;
22270;SDS011;11304;53.520;10.104;2023-04-03T01:05:20;5.75;;;2.45;;
22270;SDS011;11304;53.520;10.104;2023-04-03T01:07:46;7.45;;;2.03;;
22270;SDS011;11304;53.520;10.104;2023-04-03T01:10:14;5.75;;;1.90;;
22270;SDS011;11304;53.520;10.104;2023-04-03T01:12:41;11.82;;;2.35;;
22270;SDS011;11304;53.520;10.104;2023-04-03T01:15:12;9.00;;;1.92;;
22270;SDS011;11304;53.520;10.104;2023-04-03T01:25:38;4.95;;;1.98;;
22270;SDS011;11304;53.520;10.104;2023-04-03T01:28:06;10.63;;;2.20;;
22270;SDS011;11304;53.520;10.104;2023-04-03T01:30:34;7.60;;;2.33;;
22270;SDS011;11304;53.520;10.104;2023-04-03T01:33:01;8.32;;;2.00;;
22270;SDS011;11304;53.520;10.104;2023-04-03T01:35:27;8.65;;;2.15;;
22270;SDS011;11304;53.520;10.104;2023-04-03T01:37:53;9.23;;;2.20;;
22270;SDS011;11304;53.520;10.104;2023-04-03T01:40:19;5.97;;;2.30;;
22270;SDS011;11304;53.520;10.104;2023-04-03T01:42:45;8.48;;;2.50;;
22270;SDS011;11304;53.520;10.104;2023-04-03T01:45:11;6.18;;;2.22;;
22270;SDS011;11304;53.520;10.104;2023-04-03T01:47:37;8.38;;;2.17;;
22270;SDS011;11304;53.520;10.104;2023-04-03T01:50:04;8.95;;;2.55;;
22270;SDS011;11304;53.520;10.104;2023-04-03T01:52:30;4.35;;;2.00;;
22270;SDS011;11304;53.520;10.104;2023-04-03T01:54:56;5.35;;;2.10;;
22270;SDS011;11304;53.520;10.104;2023-04-03T01:57:22;6.30;;;2.35;;
22270;SDS011;11304;53.520;10.104;2023-04-03T01:59:48;8.40;;;1.95;;
22270;SDS011;11304;53.520;10.104;2023-04-03T02:02:14;11.13;;;2.55;;
22270;SDS011;11304;53.520;10.104;2023-04-03T02:04:40;8.00;;;2.28;;
22270;SDS011;11304;53.520;10.104;2023-04-03T02:07:07;8.02;;;2.00;;
22270;SDS011;11304;53.520;10.104;2023-04-03T02:09:33;9.15;;;2.60;;
22270;SDS011;11304;53.520;10.104;2023-04-03T02:11:59;7.40;;;2.15;;
22270;SDS011;11304;53.520;10.104;2023-04-03T02:14:25;4.97;;;1.95;;
22270;SDS011;11304;53.520;10.104;2023-04-03T02:16:52;4.72;;;1.98;;
22270;SDS011;11304;53.520;10.104;2023-04-03T02:19:18;8.18;;;2.33;;
22270;SDS011;11304;53.520;10.104;2023-04-03T02:21:45;8.75;;;2.65;;
22270;SDS011;11304;53.520;10.104;2023-04-03T02:24:11;5.78;;;1.88;;
22270;SDS011;11304;53.520;10.104;2023-04-03T02:26:37;6.90;;;2.42;;
22270;SDS011;11304;53.520;10.104;2023-04-03T02:29:03;11.93;;;2.58;;
22270;SDS011;11304;53.520;10.104;2023-04-03T02:31:29;6.25;;;2.38;;
22270;SDS011;11304;53.520;10.104;2023-04-03T02:33:55;9.02;;;2.53;;
22270;SDS011;11304;53.520;10.104;2023-04-03T02:36:21;6.00;;;2.17;;
22270;SDS011;11304;53.520;10.104;2023-04-03T02:38:47;10.70;;;2.80;;
22270;SDS011;11304;53.520;10.104;2023-04-03T02:41:14;8.60;;;2.60;;
22270;SDS011;11304;53.520;10.104;2023-04-03T02:43:40;10.88;;;2.80;;
22270;SDS011;11304;53.520;10.104;2023-04-03T02:46:06;7.90;;;2.67;;
22270;SDS011;11304;53.520;10.104;2023-04-03T02:48:33;6.93;;;2.60;;
22270;SDS011;11304;53.520;10.104;2023-04-03T02:50:59;6.60;;;2.20;;
22270;SDS011;11304;53.520;10.104;2023-04-03T02:53:26;8.85;;;2.50;;
22270;SDS011;11304;53.520;10.104;2023-04-03T02:55:52;10.07;;;2.85;;
22270;SDS011;11304;53.520;10.104;2023-04-03T02:58:18;7.13;;;2.83;;
22270;SDS011;11304;53.520;10.104;2023-04-03T03:00:44;7.15;;;2.30;;
22270;SDS011;11304;53.520;10.104;2023-04-03T03:03:10;6.95;;;2.28;;
22270;SDS011;11304;53.520;10.104;2023-04-03T03:05:38;7.65;;;2.13;;
22270;SDS011;11304;53.520;10.104;2023-04-03T03:08:04;8.68;;;2.80;;
22270;SDS011;11304;53.520;10.104;2023-04-03T03:10:30;6.85;;;2.15;;
22270;SDS011;11304;53.520;10.104;2023-04-03T03:12:56;13.05;;;2.25;;
22270;SDS011;11304;53.520;10.104;2023-04-03T03:15:22;11.25;;;2.65;;
22270;SDS011;11304;53.520;10.104;2023-04-03T03:17:49;7.22;;;2.33;;
22270;SDS011;11304;53.520;10.104;2023-04-03T03:20:15;7.72;;;2.45;;
22270;SDS011;11304;53.520;10.104;2023-04-03T03:22:41;8.18;;;2.50;;
22270;SDS011;11304;53.520;10.104;2023-04-03T03:25:07;6.65;;;2.42;;
22270;SDS011;11304;53.520;10.104;2023-04-03T03:27:34;7.80;;;2.95;;
22270;SDS011;11304;53.520;10.104;2023-04-03T03:30:00;7.72;;;2.33;;
22270;SDS011;11304;53.520;10.104;2023-04-03T03:32:26;6.22;;;2.45;;
22270;SDS011;11304;53.520;10.104;2023-04-03T03:34:52;8.13;;;2.50;;
22270;SDS011;11304;53.520;10.104;2023-04-03T03:37:18;8.70;;;2.53;;
22270;SDS011;11304;53.520;10.104;2023-04-03T03:39:45;9.48;;;2.30;;
22270;SDS011;11304;53.520;10.104;2023-04-03T03:42:11;7.97;;;2.50;;
22270;SDS011;11304;53.520;10.104;2023-04-03T03:44:37;7.95;;;2.58;;
22270;SDS011;11304;53.520;10.104;2023-04-03T03:47:03;9.25;;;2.72;;
22270;SDS011;11304;53.520;10.104;2023-04-03T03:49:31;10.63;;;3.08;;
22270;SDS011;11304;53.520;10.104;2023-04-03T03:51:57;7.25;;;2.63;;
22270;SDS011;11304;53.520;10.104;2023-04-03T03:54:23;7.80;;;2.97;;
22270;SDS011;11304;53.520;10.104;2023-04-03T03:56:49;7.50;;;2.92;;
22270;SDS011;11304;53.520;10.104;2023-04-03T03:59:15;9.38;;;2.95;;
22270;SDS011;11304;53.520;10.104;2023-04-03T04:01:41;8.05;;;3.42;;
22270;SDS011;11304;53.520;10.104;2023-04-03T04:04:07;9.70;;;3.40;;
22270;SDS011;11304;53.520;10.104;2023-04-03T04:06:33;12.02;;;3.85;;
22270;SDS011;11304;53.520;10.104;2023-04-03T04:09:00;11.60;;;3.72;;
22270;SDS011;11304;53.520;10.104;2023-04-03T04:11:26;9.48;;;3.78;;
22270;SDS011;11304;53.520;10.104;2023-04-03T04:13:52;13.38;;;3.80;;
22270;SDS011;11304;53.520;10.104;2023-04-03T04:16:18;14.63;;;4.10;;
22270;SDS011;11304;53.520;10.104;2023-04-03T04:18:44;12.18;;;4.15;;
22270;SDS011;11304;53.520;10.104;2023-04-03T04:21:11;9.10;;;3.50;;
22270;SDS011;11304;53.520;10.104;2023-04-03T04:23:37;15.93;;;4.10;;
22270;SDS011;11304;53.520;10.104;2023-04-03T04:26:03;10.77;;;4.40;;
22270;SDS011;11304;53.520;10.104;2023-04-03T04:28:29;9.38;;;4.00;;
22270;SDS011;11304;53.520;10.104;2023-04-03T04:30:55;11.98;;;4.70;;
22270;SDS011;11304;53.520;10.104;2023-04-03T04:33:21;9.52;;;4.13;;
22270;SDS011;11304;53.520;10.104;2023-04-03T04:35:47;13.95;;;4.35;;
22270;SDS011;11304;53.520;10.104;2023-04-03T04:38:14;10.57;;;4.10;;
22270;SDS011;11304;53.520;10.104;2023-04-03T04:40:40;15.10;;;4.38;;
22270;SDS011;11304;53.520;10.104;2023-04-03T04:43:06;20.17;;;5.03;;
22270;SDS011;11304;53.520;10.104;2023-04-03T04:45:32;12.98;;;4.82;;
22270;SDS011;11304;53.520;10.104;2023-04-03T04:47:58;11.23;;;4.45;;
22270;SDS011;11304;53.520;10.104;2023-04-03T04:50:25;10.52;;;4.38;;
22270;SDS011;11304;53.520;10.104;2023-04-03T04:52:51;13.98;;;4.60;;
22270;SDS011;11304;53.520;10.104;2023-04-03T04:55:17;10.23;;;4.90;;
22270;SDS011;11304;53.520;10.104;2023-04-03T04:57:43;10.07;;;4.90;;
22270;SDS011;11304;53.520;10.104;2023-04-03T05:00:09;10.43;;;4.15;;
22270;SDS011;11304;53.520;10.104;2023-04-03T05:02:36;14.13;;;4.63;;
22270;SDS011;11304;53.520;10.104;2023-04-03T05:05:02;11.10;;;4.50;;
22270;SDS011;11304;53.520;10.104;2023-04-03T05:07:28;14.00;;;5.43;;
22270;SDS011;11304;53.520;10.104;2023-04-03T05:09:55;18.23;;;5.55;;
22270;SDS011;11304;53.520;10.104;2023-04-03T05:12:21;14.00;;;5.40;;
22270;SDS011;11304;53.520;10.104;2023-04-03T05:14:47;16.13;;;5.43;;
22270;SDS011;11304;53.520;10.104;2023-04-03T05:17:13;14.35;;;5.35;;
22270;SDS011;11304;53.520;10.104;2023-04-03T05:19:39;8.70;;;4.45;;
22270;SDS011;11304;53.520;10.104;2023-04-03T05:22:05;15.23;;;5.20;;
22270;SDS011;11304;53.520;10.104;2023-04-03T05:24:31;14.05;;;4.65;;
22270;SDS011;11304;53.520;10.104;2023-04-03T05:26:58;9.55;;;4.22;;
22270;SDS011;11304;53.520;10.104;2023-04-03T05:29:24;12.57;;;4.90;;
22270;SDS011;11304;53.520;10.104;2023-04-03T05:31:50;11.10;;;4.15;;
22270;SDS011;11304;53.520;10.104;2023-04-03T05:34:16;13.13;;;3.92;;
22270;SDS011;11304;53.520;10.104;2023-04-03T05:36:42;10.90;;;4.10;;
22270;SDS011;11304;53.520;10.104;2023-04-03T05:39:08;9.23;;;3.67;;
22270;SDS011;11304;53.520;10.104;2023-04-03T05:41:34;9.10;;;3.22;;
22270;SDS011;11304;53.520;10.104;2023-04-03T05:44:01;7.40;;;3.03;;
22270;SDS011;11304;53.520;10.104;2023-04-03T05:48:53;10.13;;;2.67;;
22270;SDS011;11304;53.520;10.104;2023-04-03T05:51:22;9.25;;;3.83;;
22270;SDS011;11304;53.520;10.104;2023-04-03T05:53:48;7.03;;;2.92;;
22270;SDS011;11304;53.520;10.104;2023-04-03T05:56:15;8.65;;;2.65;;
22270;SDS011;11304;53.520;10.104;2023-04-03T05:58:41;7.07;;;2.70;;
22270;SDS011;11304;53.520;10.104;2023-04-03T06:01:07;11.93;;;3.47;;
22270;SDS011;11304;53.520;10.104;2023-04-03T06:03:34;8.93;;;2.88;;
22270;SDS011;11304;53.520;10.104;2023-04-03T06:06:02;6.50;;;2.63;;
22270;SDS011;11304;53.520;10.104;2023-04-03T06:08:28;7.70;;;2.47;;
22270;SDS011;11304;53.520;10.104;2023-04-03T06:10:54;7.85;;;2.95;;
22270;SDS011;11304;53.520;10.104;2023-04-03T06:13:21;8.75;;;3.08;;
22270;SDS011;11304;53.520;10.104;2023-04-03T06:15:47;8.05;;;2.55;;
22270;SDS011;11304;53.520;10.104;2023-04-03T06:18:13;9.25;;;2.67;;
22270;SDS011;11304;53.520;10.104;2023-04-03T06:20:40;7.40;;;2.55;;
22270;SDS011;11304;53.520;10.104;2023-04-03T06:23:06;7.13;;;2.53;;
22270;SDS011;11304;53.520;10.104;2023-04-03T06:25:32;10.75;;;2.72;;
22270;SDS011;11304;53.520;10.104;2023-04-03T06:27:58;8.35;;;2.40;;
22270;SDS011;11304;53.520;10.104;2023-04-03T06:30:25;8.88;;;2.47;;
22270;SDS011;11304;53.520;10.104;2023-04-03T06:32:51;7.38;;;2.25;;
22270;SDS011;11304;53.520;10.104;2023-04-03T06:35:17;10.23;;;2.72;;
22270;SDS011;11304;53.520;10.104;2023-04-03T06:37:43;5.43;;;2.22;;
22270;SDS011;11304;53.520;10.104;2023-04-03T06:40:20;7.95;;;2.30;;
22270;SDS011;11304;53.520;10.104;2023-04-03T06:42:47;8.32;;;2.33;;
22270;SDS011;11304;53.520;10.104;2023-04-03T06:45:13;10.15;;;2.45;;
22270;SDS011;11304;53.520;10.104;2023-04-03T06:47:39;9.05;;;2.10;;
22270;SDS011;11304;53.520;10.104;2023-04-03T06:50:06;10.48;;;2.45;;
22270;SDS011;11304;53.520;10.104;2023-04-03T06:52:33;9.07;;;2.53;;
22270;SDS011;11304;53.520;10.104;2023-04-03T06:55:00;6.75;;;2.00;;
22270;SDS011;11304;53.520;10.104;2023-04-03T06:57:26;8.43;;;2.50;;
22270;SDS011;11304;53.520;10.104;2023-04-03T06:59:52;6.55;;;2.20;;
22270;SDS011;11304;53.520;10.104;2023-04-03T07:02:18;6.15;;;1.85;;
22270;SDS011;11304;53.520;10.104;2023-04-03T07:04:45;6.25;;;2.35;;
22270;SDS011;11304;53.520;10.104;2023-04-03T07:07:11;10.88;;;2.40;;
22270;SDS011;11304;53.520;10.104;2023-04-03T07:09:38;10.68;;;2.00;;
22270;SDS011;11304;53.520;10.104;2023-04-03T07:12:04;6.07;;;2.00;;
22270;SDS011;11304;53.520;10.104;2023-04-03T07:14:30;6.32;;;1.80;;
22270;SDS011;11304;53.520;10.104;2023-04-03T07:16:56;5.15;;;1.40;;
22270;SDS011;11304;53.520;10.104;2023-04-03T07:19:22;6.93;;;1.45;;
22270;SDS011;11304;53.520;10.104;2023-04-03T07:21:52;7.25;;;1.70;;
22270;SDS011;11304;53.520;10.104;2023-04-03T07:24:18;4.80;;;1.70;;
22270;SDS011;11304;53.520;10.104;2023-04-03T07:26:44;7.53;;;1.50;;
22270;SDS011;11304;53.520;10.104;2023-04-03T07:29:10;6.63;;;1.30;;
22270;SDS011;11304;53.520;10.104;2023-04-03T07:31:36;7.32;;;1.35;;
22270;SDS011;11304;53.520;10.104;2023-04-03T07:34:05;4.00;;;1.27;;
22270;SDS011;11304;53.520;10.104;2023-04-03T07:36:31;5.68;;;1.65;;
22270;SDS011;11304;53.520;10.104;2023-04-03T07:38:58;6.80;;;1.60;;
22270;SDS011;11304;53.520;10.104;2023-04-03T07:41:24;7.43;;;1.70;;
22270;SDS011;11304;53.520;10.104;2023-04-03T07:43:50;5.63;;;1.33;;
22270;SDS011;11304;53.520;10.104;2023-04-03T07:46:17;5.38;;;1.30;;
22270;SDS011;11304;53.520;10.104;2023-04-03T07:48:44;6.22;;;1.80;;
22270;SDS011;11304;53.520;10.104;2023-04-03T07:51:10;8.15;;;1.77;;
22270;SDS011;11304;53.520;10.104;2023-04-03T07:53:36;6.68;;;1.80;;
22270;SDS011;11304;53.520;10.104;2023-04-03T07:56:02;5.60;;;1.30;;
22270;SDS011;11304;53.520;10.104;2023-04-03T07:58:28;5.38;;;1.50;;
22270;SDS011;11304;53.520;10.104;2023-04-03T08:00:55;8.02;;;1.73;;
22270;SDS011;11304;53.520;10.104;2023-04-03T08:03:21;9.15;;;1.30;;
22270;SDS011;11304;53.520;10.104;2023-04-03T08:05:48;7.10;;;0.95;;
22270;SDS011;11304;53.520;10.104;2023-04-03T08:08:18;6.57;;;1.08;;
22270;SDS011;11304;53.520;10.104;2023-04-03T08:10:48;4.93;;;1.15;;
22270;SDS011;11304;53.520;10.104;2023-04-03T08:13:14;4.22;;;1.05;;
22270;SDS011;11304;53.520;10.104;2023-04-03T08:15:40;6.88;;;1.13;;
22270;SDS011;11304;53.520;10.104;2023-04-03T08:18:07;6.45;;;1.50;;
22270;SDS011;11304;53.520;10.104;2023-04-03T08:20:33;7.07;;;1.23;;
22270;SDS011;11304;53.520;10.104;2023-04-03T08:22:59;3.55;;;1.17;;
22270;SDS011;11304;53.520;10.104;2023-04-03T08:25:25;4.03;;;1.45;;
22270;SDS011;11304;53.520;10.104;2023-04-03T08:27:52;7.28;;;1.30;;
22270;SDS011;11304;53.520;10.104;2023-04-03T08:30:18;4.78;;;1.35;;
22270;SDS011;11304;53.520;10.104;2023-04-03T08:32:44;13.70;;;1.88;;
22270;SDS011;11304;53.520;10.104;2023-04-03T08:35:11;8.45;;;1.55;;
22270;SDS011;11304;53.520;10.104;2023-04-03T08:37:37;10.23;;;1.98;;
22270;SDS011;11304;53.520;10.104;2023-04-03T08:40:13;4.72;;;1.23;;
22270;SDS011;11304;53.520;10.104;2023-04-03T08:45:57;5.57;;;1.25;;
22270;SDS011;11304;53.520;10.104;2023-04-03T08:48:04;5.30;;;1.50;;
22270;SDS011;11304;53.520;10.104;2023-04-03T08:50:41;15.50;;;2.03;;
22270;SDS011;11304;53.520;10.104;2023-04-03T08:53:13;5.97;;;1.23;;
22270;SDS011;11304;53.520;10.104;2023-04-03T08:55:44;7.53;;;1.02;;
22270;SDS011;11304;53.520;10.104;2023-04-03T09:00:47;9.15;;;1.10;;
22270;SDS011;11304;53.520;10.104;2023-04-03T09:03:15;12.18;;;1.92;;
22270;SDS011;11304;53.520;10.104;2023-04-03T09:05:56;4.03;;;1.05;;
22270;SDS011;11304;53.520;10.104;2023-04-03T09:08:29;4.82;;;1.30;;
22270;SDS011;11304;53.520;10.104;2023-04-03T09:13:52;4.82;;;1.70;;
22270;SDS011;11304;53.520;10.104;2023-04-03T09:16:25;2.60;;;1.08;;
22270;SDS011;11304;53.520;10.104;2023-04-03T09:21:40;4.07;;;1.02;;
22270;SDS011;11304;53.520;10.104;2023-04-03T09:24:07;4.93;;;1.30;;
22270;SDS011;11304;53.520;10.104;2023-04-03T09:26:58;5.88;;;1.52;;
22270;SDS011;11304;53.520;10.104;2023-04-03T09:29:24;5.63;;;1.10;;
22270;SDS011;11304;53.520;10.104;2023-04-03T09:31:52;7.28;;;0.80;;
22270;SDS011;11304;53.520;10.104;2023-04-03T09:34:30;5.90;;;1.20;;
22270;SDS011;11304;53.520;10.104;2023-04-03T09:36:59;2.22;;;0.73;;
22270;SDS011;11304;53.520;10.104;2023-04-03T09:39:31;4.88;;;1.00;;
22270;SDS011;11304;53.520;10.104;2023-04-03T09:42:01;5.03;;;1.25;;
22270;SDS011;11304;53.520;10.104;2023-04-03T09:44:32;3.38;;;0.95;;
22270;SDS011;11304;53.520;10.104;2023-04-03T09:46:59;11.75;;;1.38;;
22270;SDS011;11304;53.520;10.104;2023-04-03T09:49:25;2.67;;;0.98;;
22270;SDS011;11304;53.520;10.104;2023-04-03T09:51:52;4.38;;;1.05;;
22270;SDS011;11304;53.520;10.104;2023-04-03T09:54:32;11.30;;;1.50;;
22270;SDS011;11304;53.520;10.104;2023-04-03T09:57:12;3.05;;;0.93;;
22270;SDS011;11304;53.520;10.104;2023-04-03T09:59:41;3.42;;;0.80;;
22270;SDS011;11304;53.520;10.104;2023-04-03T10:04:38;2.88;;;0.90;;
22270;SDS011;11304;53.520;10.104;2023-04-03T10:07:25;4.10;;;1.17;;
22270;SDS011;11304;53.520;10.104;2023-04-03T10:09:56;7.13;;;1.70;;
22270;SDS011;11304;53.520;10.104;2023-04-03T10:12:22;3.35;;;1.08;;
22270;SDS011;11304;53.520;10.104;2023-04-03T10:14:56;5.80;;;1.13;;
22270;SDS011;11304;53.520;10.104;2023-04-03T10:25:10;7.10;;;1.25;;
22270;SDS011;11304;53.520;10.104;2023-04-03T10:35:18;7.53;;;1.50;;
22270;SDS011;11304;53.520;10.104;2023-04-03T10:40:51;9.95;;;1.42;;
22270;SDS011;11304;53.520;10.104;2023-04-03T10:43:10;4.00;;;0.90;;
22270;SDS011;11304;53.520;10.104;2023-04-03T10:53:19;4.53;;;1.10;;
22270;SDS011;11304;53.520;10.104;2023-04-03T10:55:53;4.57;;;1.00;;
22270;SDS011;11304;53.520;10.104;2023-04-03T10:58:33;4.50;;;0.80;;
22270;SDS011;11304;53.520;10.104;2023-04-03T11:01:07;3.05;;;0.80;;
22270;SDS011;11304;53.520;10.104;2023-04-03T11:03:35;3.45;;;0.90;;
22270;SDS011;11304;53.520;10.104;2023-04-03T11:06:05;2.17;;;0.90;;
22270;SDS011;11304;53.520;10.104;2023-04-03T11:08:35;3.45;;;0.93;;
22270;SDS011;11304;53.520;10.104;2023-04-03T11:11:12;7.30;;;1.27;;
22270;SDS011;11304;53.520;10.104;2023-04-03T11:13:41;10.70;;;1.40;;
22270;SDS011;11304;53.520;10.104;2023-04-03T11:16:09;4.40;;;1.10;;
22270;SDS011;11304;53.520;10.104;2023-04-03T11:18:51;6.57;;;1.13;;
22270;SDS011;11304;53.520;10.104;2023-04-03T11:21:28;7.95;;;1.10;;
22270;SDS011;11304;53.520;10.104;2023-04-03T11:23:56;6.30;;;1.17;;
22270;SDS011;11304;53.520;10.104;2023-04-03T11:26:25;2.13;;;0.98;;
22270;SDS011;11304;53.520;10.104;2023-04-03T11:28:54;11.07;;;1.25;;
22270;SDS011;11304;53.520;10.104;2023-04-03T11:33:55;17.88;;;2.25;;
22270;SDS011;11304;53.520;10.104;2023-04-03T11:36:24;5.95;;;1.20;;
22270;SDS011;11304;53.520;10.104;2023-04-03T11:38:53;5.18;;;1.40;;
22270;SDS011;11304;53.520;10.104;2023-04-03T11:41:30;9.87;;;1.40;;
22270;SDS011;11304;53.520;10.104;2023-04-03T11:44:01;6.20;;;1.10;;
22270;SDS011;11304;53.520;10.104;2023-04-03T11:49:49;5.72;;;1.20;;
22270;SDS011;11304;53.520;10.104;2023-04-03T11:51:58;3.85;;;0.80;;
22270;SDS011;11304;53.520;10.104;2023-04-03T11:54:43;5.72;;;1.25;;
22270;SDS011;11304;53.520;10.104;2023-04-03T11:57:42;4.07;;;0.85;;
22270;SDS011;11304;53.520;10.104;2023-04-03T12:02:54;61.55;;;5.85;;
22270;SDS011;11304;53.520;10.104;2023-04-03T12:05:25;3.53;;;0.88;;
22270;SDS011;11304;53.520;10.104;2023-04-03T12:10:37;2.88;;;0.73;;
22270;SDS011;11304;53.520;10.104;2023-04-03T12:13:13;3.10;;;0.70;;
22270;SDS011;11304;53.520;10.104;2023-04-03T12:15:44;4.93;;;1.00;;
22270;SDS011;11304;53.520;10.104;2023-04-03T12:20:58;8.23;;;1.05;;
22270;SDS011;11304;53.520;10.104;2023-04-03T12:23:32;2.50;;;0.90;;
22270;SDS011;11304;53.520;10.104;2023-04-03T12:26:04;9.85;;;1.25;;
22270;SDS011;11304;53.520;10.104;2023-04-03T12:28:39;4.50;;;0.95;;
22270;SDS011;11304;53.520;10.104;2023-04-03T12:31:08;3.58;;;0.98;;
22270;SDS011;11304;53.520;10.104;2023-04-03T12:33:46;11.43;;;1.30;;
22270;SDS011;11304;53.520;10.104;2023-04-03T12:39:10;3.38;;;0.77;;
22270;SDS011;11304;53.520;10.104;2023-04-03T12:46:52;7.70;;;0.82;;
22270;SDS011;11304;53.520;10.104;2023-04-03T12:52:16;15.75;;;2.05;;
22270;SDS011;11304;53.520;10.104;2023-04-03T12:54:42;8.25;;;1.30;;
22270;SDS011;11304;53.520;10.104;2023-04-03T12:57:18;19.13;;;1.58;;
22270;SDS011;11304;53.520;10.104;2023-04-03T12:59:45;26.02;;;2.65;;
22270;SDS011;11304;53.520;10.104;2023-04-03T13:04:55;17.58;;;2.15;;
22270;SDS011;11304;53.520;10.104;2023-04-03T13:07:24;11.32;;;2.05;;
22270;SDS011;11304;53.520;10.104;2023-04-03T13:09:57;29.17;;;2.45;;
22270;SDS011;11304;53.520;10.104;2023-04-03T13:12:24;5.40;;;1.13;;
22270;SDS011;11304;53.520;10.104;2023-04-03T13:14:54;23.08;;;2.00;;
22270;SDS011;11304;53.520;10.104;2023-04-03T13:17:21;11.88;;;1.77;;
22270;SDS011;11304;53.520;10.104;2023-04-03T13:19:48;5.93;;;1.00;;
22270;SDS011;11304;53.520;10.104;2023-04-03T13:22:20;2.92;;;0.77;;
22270;SDS011;11304;53.520;10.104;2023-04-03T13:24:50;6.65;;;1.60;;
22270;SDS011;11304;53.520;10.104;2023-04-03T13:27:17;5.13;;;1.08;;
22270;SDS011;11304;53.520;10.104;2023-04-03T13:29:43;3.63;;;0.70;;
22270;SDS011;11304;53.520;10.104;2023-04-03T13:32:15;11.20;;;1.70;;
22270;SDS011;11304;53.520;10.104;2023-04-03T13:34:43;15.50;;;1.50;;
22270;SDS011;11304;53.520;10.104;2023-04-03T13:37:21;10.85;;;1.38;;
22270;SDS011;11304;53.520;10.104;2023-04-03T13:39:57;7.70;;;1.58;;
22270;SDS011;11304;53.520;10.104;2023-04-03T13:42:33;27.60;;;2.17;;
22270;SDS011;11304;53.520;10.104;2023-04-03T13:45:10;2.25;;;0.85;;
22270;SDS011;11304;53.520;10.104;2023-04-03T13:47:40;3.28;;;1.23;;
22270;SDS011;11304;53.520;10.104;2023-04-03T13:50:20;4.10;;;1.02;;
22270;SDS011;11304;53.520;10.104;2023-04-03T13:52:59;5.45;;;1.10;;
22270;SDS011;11304;53.520;10.104;2023-04-03T13:55:54;5.80;;;1.95;;
22270;SDS011;11304;53.520;10.104;2023-04-03T13:58:25;5.13;;;1.90;;
22270;SDS011;11304;53.520;10.104;2023-04-03T14:00:53;3.05;;;1.10;;
22270;SDS011;11304;53.520;10.104;2023-04-03T14:03:26;4.07;;;1.17;;
22270;SDS011;11304;53.520;10.104;2023-04-03T14:05:54;3.63;;;1.00;;
22270;SDS011;11304;53.520;10.104;2023-04-03T14:08:20;5.35;;;1.00;;
22270;SDS011;11304;53.520;10.104;2023-04-03T14:10:47;4.88;;;0.88;;
22270;SDS011;11304;53.520;10.104;2023-04-03T14:13:14;8.13;;;1.40;;
22270;SDS011;11304;53.520;10.104;2023-04-03T14:15:41;5.20;;;1.13;;
22270;SDS011;11304;53.520;10.104;2023-04-03T14:18:15;2.88;;;0.80;;
22270;SDS011;11304;53.520;10.104;2023-04-03T14:20:41;9.57;;;1.40;;
22270;SDS011;11304;53.520;10.104;2023-04-03T14:23:07;2.03;;;0.80;;
22270;SDS011;11304;53.520;10.104;2023-04-03T14:25:33;6.70;;;1.23;;
22270;SDS011;11304;53.520;10.104;2023-04-03T14:28:00;4.38;;;1.10;;
22270;SDS011;11304;53.520;10.104;2023-04-03T14:30:28;7.68;;;1.10;;
22270;SDS011;11304;53.520;10.104;2023-04-03T14:32:55;20.45;;;1.60;;
22270;SDS011;11304;53.520;10.104;2023-04-03T14:35:21;3.25;;;1.08;;
22270;SDS011;11304;53.520;10.104;2023-04-03T14:37:47;6.53;;;1.13;;
22270;SDS011;11304;53.520;10.104;2023-04-03T14:40:16;4.57;;;0.95;;
22270;SDS011;11304;53.520;10.104;2023-04-03T14:42:42;1.50;;;0.80;;
22270;SDS011;11304;53.520;10.104;2023-04-03T14:45:09;2.80;;;0.90;;
22270;SDS011;11304;53.520;10.104;2023-04-03T14:47:38;2.85;;;0.90;;
22270;SDS011;11304;53.520;10.104;2023-04-03T14:50:06;2.30;;;0.93;;
22270;SDS011;11304;53.520;10.104;2023-04-03T14:52:34;3.45;;;0.95;;
22270;SDS011;11304;53.520;10.104;2023-04-03T14:55:01;10.27;;;1.50;;
22270;SDS011;11304;53.520;10.104;2023-04-03T14:57:28;1.95;;;0.85;;
22270;SDS011;11304;53.520;10.104;2023-04-03T14:59:55;3.67;;;1.10;;
22270;SDS011;11304;53.520;10.104;2023-04-03T15:02:28;2.08;;;0.73;;
22270;SDS011;11304;53.520;10.104;2023-04-03T15:04:56;3.38;;;0.80;;
22270;SDS011;11304;53.520;10.104;2023-04-03T15:07:22;3.88;;;1.02;;
22270;SDS011;11304;53.520;10.104;2023-04-03T15:09:49;3.60;;;1.20;;
22270;SDS011;11304;53.520;10.104;2023-04-03T15:12:15;2.83;;;0.95;;
22270;SDS011;11304;53.520;10.104;2023-04-03T15:14:42;3.42;;;0.80;;
22270;SDS011;11304;53.520;10.104;2023-04-03T15:17:17;2.67;;;0.88;;
22270;SDS011;11304;53.520;10.104;2023-04-03T15:19:45;2.33;;;0.85;;
22270;SDS011;11304;53.520;10.104;2023-04-03T15:22:15;5.25;;;1.20;;
22270;SDS011;11304;53.520;10.104;2023-04-03T15:24:42;2.05;;;0.85;;
22270;SDS011;11304;53.520;10.104;2023-04-03T15:27:08;3.22;;;1.17;;
22270;SDS011;11304;53.520;10.104;2023-04-03T15:29:34;1.83;;;0.90;;
22270;SDS011;11304;53.520;10.104;2023-04-03T15:32:01;3.88;;;1.00;;
22270;SDS011;11304;53.520;10.104;2023-04-03T15:34:27;2.33;;;0.95;;
22270;SDS011;11304;53.520;10.104;2023-04-03T15:36:53;4.85;;;1.20;;
22270;SDS011;11304;53.520;10.104;2023-04-03T15:39:20;4.47;;;1.05;;
22270;SDS011;11304;53.520;10.104;2023-04-03T15:41:47;2.90;;;1.20;;
22270;SDS011;11304;53.520;10.104;2023-04-03T15:44:14;3.03;;;1.05;;
22270;SDS011;11304;53.520;10.104;2023-04-03T15:46:42;4.22;;;1.08;;
22270;SDS011;11304;53.520;10.104;2023-04-03T15:49:08;4.55;;;0.90;;
22270;SDS011;11304;53.520;10.104;2023-04-03T15:51:35;3.38;;;0.90;;
22270;SDS011;11304;53.520;10.104;2023-04-03T15:54:01;2.60;;;0.88;;